EGPD/ABZ METAR and TAF weather

Enter ICAO airport designator
Station Type Date Time Source
EGPD METAR 2020/06/02 17:50 UTC NOAA

EGPD 021750Z 34009KT 8000 -RA BKN011 11/10 Q1018


Station Type Date Time Source
EGPD Decoded METAR 2020/06/02 17:50 UTC NOAA

Aberdeen / Dyce, United Kingdom (EGPD) 57-12N 002-13W 0M
Jun 02, 2020 - 01:50 PM EDT / 2020.06.02 1750 UTC
Wind: from the NNW (340 degrees) at 10 MPH (9 KT):0
Visibility: 4 mile(s):0
Sky conditions: mostly cloudy
Weather: light rain
Temperature: 51 F (11 C)
Dew Point: 50 F (10 C)
Relative Humidity: 93%
Pressure (altimeter): 30.06 in. Hg (1018 hPa)
ob: EGPD 021750Z 34009KT 8000 -RA BKN011 11/10 Q1018
cycle: 18

Station Type Date Time Source
EGPD TAF 2020/06/02 18:09 UTC NOAA

TAF EGPD 021655Z 0218/0318 34012KT 9999 FEW010 BKN040
TEMPO 0218/0307 8000 SHRA RA BKN010 PROB40
TEMPO 0218/0221 4000 +SHRA BKN008 PROB40
TEMPO 0221/0304 BKN005 PROB40
TEMPO 0223/0318 34015G25KT PROB30
TEMPO 0312/0317 8000 SHRA BKN012

Example: see airport list